Main page
METAR-TAF:

METAR-TAF

Airports :

RAF Woodvale

Woodvale, England

latitude: 53-34-54N, longitude: 003-03-20W, elevation: 11 m

Current weather observation

The report was made 14 hours and 33 minutes ago, at 08:50 UTC
Wind 9 kt from the West
Temperature 7°C
Humidity 100%
Pressure 1010 hPa
Visibility: 8000 m
Scattered clouds at a height of 700 ft
Broken clouds at a height of 2000 ft
mist

METAR: EGOW 270850Z 27009KT 8000 BR SCT007 BKN020 07/07 Q1010 RMK GRN

Time: 23:23 (23:23 UTC)


TAF: missing

Weather observations and forecasts of more than 4000 airports (METAR and TAF reports).

The available stations are represented by yellow and red dots on the map.

Hover mouse over dot to see the name of the station.

Then click to see weather observations and forecasts.

To change the map : click on the green buttons with a black cross to zoom in, on the green button with a dash to zoom out, or on the green arrows for adjacent maps.


METAR-TAF: